sensor_id;sensor_type;location;lat;lon;timestamp;pressure;altitude;pressure_sealevel;temperature;humidity
1736;BME280;865;53.672;10.250;2024-03-02T00:00:49;100057.91;;;8.10;100.00
1736;BME280;865;53.672;10.250;2024-03-02T00:03:16;100045.88;;;8.05;100.00
1736;BME280;865;53.672;10.250;2024-03-02T00:05:43;100050.41;;;7.95;100.00
1736;BME280;865;53.672;10.250;2024-03-02T00:08:09;100046.09;;;7.95;100.00
1736;BME280;865;53.672;10.250;2024-03-02T00:10:37;100044.25;;;8.01;100.00
1736;BME280;865;53.672;10.250;2024-03-02T00:13:07;100042.59;;;7.96;100.00
1736;BME280;865;53.672;10.250;2024-03-02T00:15:47;100042.59;;;7.96;100.00
1736;BME280;865;53.672;10.250;2024-03-02T00:18:18;100039.13;;;7.96;100.00
1736;BME280;865;53.672;10.250;2024-03-02T00:20:45;100039.25;;;7.90;100.00
1736;BME280;865;53.672;10.250;2024-03-02T00:23:14;100028.69;;;7.99;100.00
1736;BME280;865;53.672;10.250;2024-03-02T00:25:47;100031.41;;;7.94;100.00
1736;BME280;865;53.672;10.250;2024-03-02T00:28:17;100032.25;;;7.95;100.00
1736;BME280;865;53.672;10.250;2024-03-02T00:30:55;100028.94;;;7.87;100.00
1736;BME280;865;53.672;10.250;2024-03-02T00:33:24;100020.31;;;7.85;100.00
1736;BME280;865;53.672;10.250;2024-03-02T00:35:52;100026.41;;;7.84;100.00
1736;BME280;865;53.672;10.250;2024-03-02T00:38:19;100020.38;;;7.82;100.00
1736;BME280;865;53.672;10.250;2024-03-02T00:40:46;100016.22;;;7.73;100.00
1736;BME280;865;53.672;10.250;2024-03-02T00:43:42;100010.38;;;7.63;100.00
1736;BME280;865;53.672;10.250;2024-03-02T00:46:16;100003.50;;;7.61;100.00
1736;BME280;865;53.672;10.250;2024-03-02T00:48:52;100003.44;;;7.64;100.00
1736;BME280;865;53.672;10.250;2024-03-02T00:51:22;100002.50;;;7.68;100.00
1736;BME280;865;53.672;10.250;2024-03-02T00:53:51;100005.06;;;7.69;100.00
1736;BME280;865;53.672;10.250;2024-03-02T00:56:19;99999.91;;;7.66;100.00
1736;BME280;865;53.672;10.250;2024-03-02T00:58:46;99998.34;;;7.59;100.00
1736;BME280;865;53.672;10.250;2024-03-02T01:01:13;99994.19;;;7.49;100.00
1736;BME280;865;53.672;10.250;2024-03-02T01:03:39;100006.25;;;7.51;100.00
1736;BME280;865;53.672;10.250;2024-03-02T01:06:08;100004.47;;;7.55;100.00
1736;BME280;865;53.672;10.250;2024-03-02T01:08:35;100000.34;;;7.45;100.00
1736;BME280;865;53.672;10.250;2024-03-02T01:11:02;99998.53;;;7.50;100.00
1736;BME280;865;53.672;10.250;2024-03-02T01:13:29;99996.97;;;7.40;100.00
1736;BME280;865;53.672;10.250;2024-03-02T01:15:56;100003.06;;;7.39;100.00
1736;BME280;865;53.672;10.250;2024-03-02T01:18:23;99992.69;;;7.37;100.00
1736;BME280;865;53.672;10.250;2024-03-02T01:20:50;100003.97;;;7.36;100.00
1736;BME280;865;53.672;10.250;2024-03-02T01:23:23;99994.47;;;7.35;100.00
1736;BME280;865;53.672;10.250;2024-03-02T01:25:50;99989.31;;;7.34;100.00
1736;BME280;865;53.672;10.250;2024-03-02T01:28:18;99995.50;;;7.26;100.00
1736;BME280;865;53.672;10.250;2024-03-02T01:30:45;99991.00;;;7.36;100.00
1736;BME280;865;53.672;10.250;2024-03-02T01:33:11;99990.09;;;7.39;100.00
1736;BME280;865;53.672;10.250;2024-03-02T01:35:38;99978.88;;;7.37;100.00
1736;BME280;865;53.672;10.250;2024-03-02T01:38:05;99973.78;;;7.32;100.00
1736;BME280;865;53.672;10.250;2024-03-02T01:40:35;99972.81;;;7.38;100.00
1736;BME280;865;53.672;10.250;2024-03-02T01:43:04;99962.47;;;7.35;100.00
1736;BME280;865;53.672;10.250;2024-03-02T01:45:30;99964.13;;;7.39;100.00
1736;BME280;865;53.672;10.250;2024-03-02T01:47:57;99960.81;;;7.30;100.00
1736;BME280;865;53.672;10.250;2024-03-02T01:50:29;99960.09;;;7.22;100.00
1736;BME280;865;53.672;10.250;2024-03-02T01:52:56;99972.06;;;7.31;100.00
1736;BME280;865;53.672;10.250;2024-03-02T01:55:23;99964.16;;;7.37;100.00
1736;BME280;865;53.672;10.250;2024-03-02T01:57:50;99964.22;;;7.34;100.00
1736;BME280;865;53.672;10.250;2024-03-02T02:00:21;99967.63;;;7.38;100.00
1736;BME280;865;53.672;10.250;2024-03-02T02:02:48;99968.59;;;7.32;100.00
1736;BME280;865;53.672;10.250;2024-03-02T02:05:14;99968.59;;;7.30;100.00
1736;BME280;865;53.672;10.250;2024-03-02T02:07:41;99963.34;;;7.34;100.00
1736;BME280;865;53.672;10.250;2024-03-02T02:10:09;99966.13;;;7.26;100.00
1736;BME280;865;53.672;10.250;2024-03-02T02:12:37;99961.78;;;7.25;100.00
1736;BME280;865;53.672;10.250;2024-03-02T02:15:04;99959.38;;;7.16;100.00
1736;BME280;865;53.672;10.250;2024-03-02T02:17:47;99954.06;;;7.23;100.00
1736;BME280;865;53.672;10.250;2024-03-02T02:20:14;99962.66;;;7.25;100.00
1736;BME280;865;53.672;10.250;2024-03-02T02:22:53;99959.31;;;7.19;100.00
1736;BME280;865;53.672;10.250;2024-03-02T02:25:20;99964.50;;;7.20;100.00
1736;BME280;865;53.672;10.250;2024-03-02T02:27:47;99960.81;;;7.30;100.00
1736;BME280;865;53.672;10.250;2024-03-02T02:30:13;99958.22;;;7.30;100.00
1736;BME280;865;53.672;10.250;2024-03-02T02:32:40;99957.44;;;7.25;100.00
1736;BME280;865;53.672;10.250;2024-03-02T02:35:07;99953.22;;;7.21;100.00
1736;BME280;865;53.672;10.250;2024-03-02T02:37:33;99956.59;;;7.26;100.00
1736;BME280;865;53.672;10.250;2024-03-02T02:39:59;99951.53;;;7.19;100.00
1736;BME280;865;53.672;10.250;2024-03-02T02:42:26;99955.88;;;7.17;100.00
1736;BME280;865;53.672;10.250;2024-03-02T02:44:52;99947.47;;;7.05;100.00
1736;BME280;865;53.672;10.250;2024-03-02T02:47:19;99950.84;;;7.09;100.00
1736;BME280;865;53.672;10.250;2024-03-02T02:49:45;99952.50;;;7.15;100.00
1736;BME280;865;53.672;10.250;2024-03-02T02:52:12;99947.44;;;7.07;100.00
1736;BME280;865;53.672;10.250;2024-03-02T02:54:38;99949.97;;;7.10;100.00
1736;BME280;865;53.672;10.250;2024-03-02T02:57:05;99950.75;;;7.14;100.00
1736;BME280;865;53.672;10.250;2024-03-02T02:59:32;99948.34;;;7.04;100.00
1736;BME280;865;53.672;10.250;2024-03-02T03:01:58;99943.09;;;7.07;100.00
1736;BME280;865;53.672;10.250;2024-03-02T03:04:25;99937.16;;;7.01;100.00
1736;BME280;865;53.672;10.250;2024-03-02T03:06:51;99935.25;;;7.12;100.00
1736;BME280;865;53.672;10.250;2024-03-02T03:09:18;99938.72;;;7.11;100.00
1736;BME280;865;53.672;10.250;2024-03-02T03:11:45;99924.97;;;7.06;100.00
1736;BME280;865;53.672;10.250;2024-03-02T03:14:11;99933.56;;;7.10;100.00
1736;BME280;865;53.672;10.250;2024-03-02T03:16:38;99937.22;;;6.98;100.00
1736;BME280;865;53.672;10.250;2024-03-02T03:19:05;99930.34;;;6.97;100.00
1736;BME280;865;53.672;10.250;2024-03-02T03:21:31;99935.41;;;7.03;100.00
1736;BME280;865;53.672;10.250;2024-03-02T03:23:57;99936.19;;;7.08;100.00
1736;BME280;865;53.672;10.250;2024-03-02T03:26:24;99936.28;;;7.02;100.00
1736;BME280;865;53.672;10.250;2024-03-02T03:28:50;99934.47;;;7.07;100.00
1736;BME280;865;53.672;10.250;2024-03-02T03:31:17;99938.03;;;7.01;100.00
1736;BME280;865;53.672;10.250;2024-03-02T03:33:43;99937.91;;;7.09;100.00
1736;BME280;865;53.672;10.250;2024-03-02T03:36:10;99935.06;;;7.21;100.00
1736;BME280;865;53.672;10.250;2024-03-02T03:38:36;99940.31;;;7.20;100.00
1736;BME280;865;53.672;10.250;2024-03-02T03:41:03;99949.09;;;7.11;100.00
1736;BME280;865;53.672;10.250;2024-03-02T03:43:29;99950.81;;;7.12;100.00
1736;BME280;865;53.672;10.250;2024-03-02T03:45:55;99945.56;;;7.14;100.00
1736;BME280;865;53.672;10.250;2024-03-02T03:48:22;99955.94;;;7.14;100.00
1736;BME280;865;53.672;10.250;2024-03-02T03:50:49;99950.75;;;7.15;100.00
1736;BME280;865;53.672;10.250;2024-03-02T03:53:15;99949.94;;;7.12;100.00
1736;BME280;865;53.672;10.250;2024-03-02T03:55:42;99944.75;;;7.12;100.00
1736;BME280;865;53.672;10.250;2024-03-02T03:58:08;99949.00;;;7.17;100.00
1736;BME280;865;53.672;10.250;2024-03-02T04:00:35;99953.56;;;7.03;100.00
1736;BME280;865;53.672;10.250;2024-03-02T04:03:01;99955.38;;;6.99;100.00
1736;BME280;865;53.672;10.250;2024-03-02T04:05:28;99944.94;;;7.01;100.00
1736;BME280;865;53.672;10.250;2024-03-02T04:07:55;99948.38;;;7.03;100.00
1736;BME280;865;53.672;10.250;2024-03-02T04:10:21;99942.34;;;7.01;100.00
1736;BME280;865;53.672;10.250;2024-03-02T04:12:49;99945.81;;;7.01;100.00
1736;BME280;865;53.672;10.250;2024-03-02T04:15:16;99952.66;;;7.04;100.00
1736;BME280;865;53.672;10.250;2024-03-02T04:17:42;99942.47;;;6.95;100.00
1736;BME280;865;53.672;10.250;2024-03-02T04:20:09;99945.22;;;6.85;100.00
1736;BME280;865;53.672;10.250;2024-03-02T04:22:38;99939.03;;;6.93;100.00
1736;BME280;865;53.672;10.250;2024-03-02T04:25:05;99934.69;;;6.95;100.00
1736;BME280;865;53.672;10.250;2024-03-02T04:27:31;99937.28;;;6.96;100.00
1736;BME280;865;53.672;10.250;2024-03-02T04:29:59;99927.00;;;6.90;100.00
1736;BME280;865;53.672;10.250;2024-03-02T04:32:26;99931.25;;;6.94;100.00
1736;BME280;865;53.672;10.250;2024-03-02T04:34:53;99936.59;;;6.85;100.00
1736;BME280;865;53.672;10.250;2024-03-02T04:37:20;99928.72;;;6.91;100.00
1736;BME280;865;53.672;10.250;2024-03-02T04:39:47;99930.34;;;6.97;100.00
1736;BME280;865;53.672;10.250;2024-03-02T04:42:14;99931.16;;;6.99;100.00
1736;BME280;865;53.672;10.250;2024-03-02T04:44:40;99933.75;;;6.99;100.00
1736;BME280;865;53.672;10.250;2024-03-02T04:47:07;99933.53;;;7.11;100.00
1736;BME280;865;53.672;10.250;2024-03-02T04:49:33;99938.72;;;7.11;100.00
1736;BME280;865;53.672;10.250;2024-03-02T04:52:00;99935.13;;;7.17;100.00
1736;BME280;865;53.672;10.250;2024-03-02T04:54:26;99940.25;;;7.21;100.00
1736;BME280;865;53.672;10.250;2024-03-02T04:56:53;99949.00;;;7.17;100.00
1736;BME280;865;53.672;10.250;2024-03-02T04:59:19;99940.44;;;7.12;100.00
1736;BME280;865;53.672;10.250;2024-03-02T05:01:46;99938.66;;;7.14;100.00
1736;BME280;865;53.672;10.250;2024-03-02T05:04:14;99948.09;;;7.17;100.00
1736;BME280;865;53.672;10.250;2024-03-02T05:06:41;99954.97;;;7.19;100.00
1736;BME280;865;53.672;10.250;2024-03-02T05:09:08;99955.22;;;7.07;100.00
1736;BME280;865;53.672;10.250;2024-03-02T05:11:35;99954.28;;;7.11;100.00
1736;BME280;865;53.672;10.250;2024-03-02T05:14:05;99956.09;;;7.06;100.00
1736;BME280;865;53.672;10.250;2024-03-02T05:16:35;99964.78;;;7.05;100.00
1736;BME280;865;53.672;10.250;2024-03-02T05:19:05;99963.94;;;7.03;100.00
1736;BME280;865;53.672;10.250;2024-03-02T05:21:33;99960.59;;;6.96;100.00
1736;BME280;865;53.672;10.250;2024-03-02T05:24:00;99966.59;;;6.98;100.00
1736;BME280;865;53.672;10.250;2024-03-02T05:26:27;99964.78;;;7.02;100.00
1736;BME280;865;53.672;10.250;2024-03-02T05:28:53;99960.66;;;6.92;100.00
1736;BME280;865;53.672;10.250;2024-03-02T05:31:20;99959.03;;;6.88;100.00
1736;BME280;865;53.672;10.250;2024-03-02T05:33:46;99959.06;;;6.84;100.00
1736;BME280;865;53.672;10.250;2024-03-02T05:36:13;99964.22;;;6.86;100.00
1736;BME280;865;53.672;10.250;2024-03-02T05:38:39;99961.63;;;6.86;100.00
1736;BME280;865;53.672;10.250;2024-03-02T05:41:05;99960.66;;;6.93;100.00
1736;BME280;865;53.672;10.250;2024-03-02T05:43:32;99955.59;;;6.87;100.00
1736;BME280;865;53.672;10.250;2024-03-02T05:45:58;99954.75;;;6.85;100.00
1736;BME280;865;53.672;10.250;2024-03-02T05:48:25;99953.84;;;6.88;100.00
1736;BME280;865;53.672;10.250;2024-03-02T05:50:52;99953.00;;;6.85;100.00
1736;BME280;865;53.672;10.250;2024-03-02T05:53:18;99954.69;;;6.87;100.00
1736;BME280;865;53.672;10.250;2024-03-02T05:55:45;99957.34;;;6.85;100.00
1736;BME280;865;53.672;10.250;2024-03-02T05:58:11;99949.56;;;6.83;100.00
1736;BME280;865;53.672;10.250;2024-03-02T06:00:52;99956.56;;;6.80;100.00
1736;BME280;865;53.672;10.250;2024-03-02T06:03:19;99957.44;;;6.77;100.00
1736;BME280;865;53.672;10.250;2024-03-02T06:05:45;99960.94;;;6.76;100.00
1736;BME280;865;53.672;10.250;2024-03-02T06:08:12;99963.47;;;6.78;100.00
1736;BME280;865;53.672;10.250;2024-03-02T06:10:39;99957.44;;;6.79;100.00
1736;BME280;865;53.672;10.250;2024-03-02T06:13:06;99969.50;;;6.80;100.00
1736;BME280;865;53.672;10.250;2024-03-02T06:15:33;99970.31;;;6.83;100.00
1736;BME280;865;53.672;10.250;2024-03-02T06:18:02;99961.69;;;6.83;100.00
1736;BME280;865;53.672;10.250;2024-03-02T06:20:28;99965.28;;;6.74;100.00
1736;BME280;865;53.672;10.250;2024-03-02T06:23:01;99953.22;;;6.73;100.00
1736;BME280;865;53.672;10.250;2024-03-02T06:25:28;99960.94;;;6.75;100.00
1736;BME280;865;53.672;10.250;2024-03-02T06:27:54;99960.16;;;6.71;100.00
1736;BME280;865;53.672;10.250;2024-03-02T06:30:21;99963.47;;;6.78;100.00
1736;BME280;865;53.672;10.250;2024-03-02T06:32:47;99968.66;;;6.79;100.00
1736;BME280;865;53.672;10.250;2024-03-02T06:35:14;99963.44;;;6.81;100.00
1736;BME280;865;53.672;10.250;2024-03-02T06:37:41;99970.19;;;6.90;100.00
1736;BME280;865;53.672;10.250;2024-03-02T06:40:07;99973.78;;;6.82;100.00
1736;BME280;865;53.672;10.250;2024-03-02T06:42:34;99969.50;;;6.81;100.00
1736;BME280;865;53.672;10.250;2024-03-02T06:45:02;99970.34;;;6.80;100.00
1736;BME280;865;53.672;10.250;2024-03-02T06:47:29;99982.41;;;6.84;100.00
1736;BME280;865;53.672;10.250;2024-03-02T06:49:56;99983.16;;;6.90;100.00
1736;BME280;865;53.672;10.250;2024-03-02T06:52:23;99994.47;;;6.85;100.00
1736;BME280;865;53.672;10.250;2024-03-02T06:54:50;99992.72;;;6.88;100.00
1736;BME280;865;53.672;10.250;2024-03-02T06:57:17;99991.78;;;6.92;100.00
1736;BME280;865;53.672;10.250;2024-03-02T06:59:43;99990.09;;;6.89;100.00
1736;BME280;865;53.672;10.250;2024-03-02T07:02:10;99985.84;;;6.85;100.00
1736;BME280;865;53.672;10.250;2024-03-02T07:04:37;99984.06;;;6.89;100.00
1736;BME280;865;53.672;10.250;2024-03-02T07:07:04;99981.44;;;6.90;100.00
1736;BME280;865;53.672;10.250;2024-03-02T07:09:31;99982.19;;;6.97;100.00
1736;BME280;865;53.672;10.250;2024-03-02T07:11:57;99987.38;;;6.97;100.00
1736;BME280;865;53.672;10.250;2024-03-02T07:14:24;99984.75;;;6.98;100.00
1736;BME280;865;53.672;10.250;2024-03-02T07:17:13;99983.91;;;6.98;100.00
1736;BME280;865;53.672;10.250;2024-03-02T07:19:39;99992.38;;;7.07;100.00
1736;BME280;865;53.672;10.250;2024-03-02T07:22:06;99982.00;;;7.07;100.00
1736;BME280;865;53.672;10.250;2024-03-02T07:24:43;99994.94;;;7.09;100.00
1736;BME280;865;53.672;10.250;2024-03-02T07:27:10;99985.47;;;7.08;100.00
1736;BME280;865;53.672;10.250;2024-03-02T07:29:37;99992.47;;;7.03;100.00
1736;BME280;865;53.672;10.250;2024-03-02T07:32:04;100000.19;;;7.04;100.00
1736;BME280;865;53.672;10.250;2024-03-02T07:34:31;99994.06;;;7.10;100.00
1736;BME280;865;53.672;10.250;2024-03-02T07:36:57;100000.88;;;7.16;100.00
1736;BME280;865;53.672;10.250;2024-03-02T07:39:24;99999.91;;;7.21;100.00
1736;BME280;865;53.672;10.250;2024-03-02T07:41:52;100003.50;;;7.14;100.00
1736;BME280;865;53.672;10.250;2024-03-02T07:44:18;100013.56;;;7.31;100.00
1736;BME280;865;53.672;10.250;2024-03-02T07:46:46;100027.13;;;7.45;100.00
1736;BME280;865;53.672;10.250;2024-03-02T07:49:13;100016.88;;;7.41;100.00
1736;BME280;865;53.672;10.250;2024-03-02T07:51:43;100024.59;;;7.44;100.00
1736;BME280;865;53.672;10.250;2024-03-02T07:54:09;100030.41;;;7.55;100.00
1736;BME280;865;53.672;10.250;2024-03-02T07:56:36;100028.78;;;7.51;100.00
1736;BME280;865;53.672;10.250;2024-03-02T07:59:04;100035.59;;;7.57;100.00
1736;BME280;865;53.672;10.250;2024-03-02T08:01:31;100037.22;;;7.61;100.00
1736;BME280;865;53.672;10.250;2024-03-02T08:04:01;100035.28;;;7.72;100.00
1736;BME280;865;53.672;10.250;2024-03-02T08:06:30;100044.00;;;7.69;100.00
1736;BME280;865;53.672;10.250;2024-03-02T08:08:57;100047.31;;;7.76;100.00
1736;BME280;865;53.672;10.250;2024-03-02T08:11:24;100037.81;;;7.75;100.00
1736;BME280;865;53.672;10.250;2024-03-02T08:13:51;100033.19;;;7.91;100.00
1736;BME280;865;53.672;10.250;2024-03-02T08:16:19;100033.94;;;7.96;100.00
1736;BME280;865;53.672;10.250;2024-03-02T08:18:49;100039.84;;;8.04;100.00
1736;BME280;865;53.672;10.250;2024-03-02T08:21:16;100047.63;;;8.04;100.00
1736;BME280;865;53.672;10.250;2024-03-02T08:23:43;100046.59;;;8.13;100.00
1736;BME280;865;53.672;10.250;2024-03-02T08:26:11;100051.47;;;8.27;100.00
1736;BME280;865;53.672;10.250;2024-03-02T08:28:38;100057.44;;;8.32;100.00
1736;BME280;865;53.672;10.250;2024-03-02T08:31:06;100061.47;;;8.47;100.00
1736;BME280;865;53.672;10.250;2024-03-02T08:33:34;100062.19;;;8.53;100.00
1736;BME280;865;53.672;10.250;2024-03-02T08:36:04;100059.44;;;8.61;100.00
1736;BME280;865;53.672;10.250;2024-03-02T08:38:31;100057.72;;;8.60;100.00
1736;BME280;865;53.672;10.250;2024-03-02T08:40:57;100065.41;;;8.64;100.00
1736;BME280;865;53.672;10.250;2024-03-02T08:43:24;100057.38;;;8.75;100.00
1736;BME280;865;53.672;10.250;2024-03-02T08:45:51;100058.84;;;8.87;100.00
1736;BME280;865;53.672;10.250;2024-03-02T08:48:17;100068.94;;;8.99;100.00
1736;BME280;865;53.672;10.250;2024-03-02T08:50:44;100068.88;;;9.02;100.00
1736;BME280;865;53.672;10.250;2024-03-02T08:53:10;100061.16;;;8.98;100.00
1736;BME280;865;53.672;10.250;2024-03-02T08:55:37;100067.59;;;9.19;100.00
1736;BME280;865;53.672;10.250;2024-03-02T08:58:03;100063.34;;;9.16;100.00
1736;BME280;865;53.672;10.250;2024-03-02T09:00:30;100067.50;;;9.22;100.00
1736;BME280;865;53.672;10.250;2024-03-02T09:02:57;100074.44;;;9.23;100.00
1736;BME280;865;53.672;10.250;2024-03-02T09:05:23;100072.59;;;9.26;100.00
1736;BME280;865;53.672;10.250;2024-03-02T09:07:49;100070.78;;;9.30;100.00
1736;BME280;865;53.672;10.250;2024-03-02T09:10:16;100064.41;;;9.42;100.00
1736;BME280;865;53.672;10.250;2024-03-02T09:12:42;100071.88;;;9.55;100.00
1736;BME280;865;53.672;10.250;2024-03-02T09:15:09;100072.66;;;9.57;100.00
1736;BME280;865;53.672;10.250;2024-03-02T09:17:36;100074.16;;;9.66;100.00
1736;BME280;865;53.672;10.250;2024-03-02T09:20:02;100068.72;;;9.75;100.00
1736;BME280;865;53.672;10.250;2024-03-02T09:22:30;100062.31;;;9.87;100.00
1736;BME280;865;53.672;10.250;2024-03-02T09:24:56;100072.63;;;9.92;100.00
1736;BME280;865;53.672;10.250;2024-03-02T09:27:23;100075.81;;;10.01;100.00
1736;BME280;865;53.672;10.250;2024-03-02T09:29:49;100077.28;;;10.12;100.00
1736;BME280;865;53.672;10.250;2024-03-02T09:32:16;100078.56;;;10.28;100.00
1736;BME280;865;53.672;10.250;2024-03-02T09:34:42;100083.75;;;10.30;100.00
1736;BME280;865;53.672;10.250;2024-03-02T09:37:09;100081.97;;;10.30;100.00
1736;BME280;865;53.672;10.250;2024-03-02T09:39:36;100081.16;;;10.28;100.00
1736;BME280;865;53.672;10.250;2024-03-02T09:42:04;100081.81;;;10.36;100.00
1736;BME280;865;53.672;10.250;2024-03-02T09:44:31;100074.78;;;10.38;100.00
1736;BME280;865;53.672;10.250;2024-03-02T09:46:57;100078.25;;;10.39;100.00
1736;BME280;865;53.672;10.250;2024-03-02T09:49:24;100075.19;;;10.54;100.00
1736;BME280;865;53.672;10.250;2024-03-02T09:51:50;100076.78;;;10.58;100.00
1736;BME280;865;53.672;10.250;2024-03-02T09:54:17;100070.53;;;10.64;100.00
1736;BME280;865;53.672;10.250;2024-03-02T09:56:49;100070.72;;;10.58;100.00
1736;BME280;865;53.672;10.250;2024-03-02T09:59:17;100081.53;;;10.73;100.00
1736;BME280;865;53.672;10.250;2024-03-02T10:01:59;100077.03;;;10.79;100.00
1736;BME280;865;53.672;10.250;2024-03-02T10:04:27;100080.47;;;10.79;100.00
1736;BME280;865;53.672;10.250;2024-03-02T10:07:13;100087.47;;;10.79;100.00
1736;BME280;865;53.672;10.250;2024-03-02T10:09:45;100079.88;;;10.71;100.00
1736;BME280;865;53.672;10.250;2024-03-02T10:12:15;100088.78;;;10.64;100.00
1736;BME280;865;53.672;10.250;2024-03-02T10:14:42;100073.56;;;10.50;100.00
1736;BME280;865;53.672;10.250;2024-03-02T10:17:10;100079.91;;;10.69;100.00
1736;BME280;865;53.672;10.250;2024-03-02T10:19:37;100079.69;;;10.77;100.00
1736;BME280;865;53.672;10.250;2024-03-02T10:22:07;100078.59;;;10.84;100.00
1736;BME280;865;53.672;10.250;2024-03-02T10:24:44;100078.78;;;10.78;100.00
1736;BME280;865;53.672;10.250;2024-03-02T10:27:16;100073.03;;;10.95;100.00
1736;BME280;865;53.672;10.250;2024-03-02T10:29:46;100075.91;;;11.14;100.00
1736;BME280;865;53.672;10.250;2024-03-02T10:32:12;100075.38;;;11.29;100.00
1736;BME280;865;53.672;10.250;2024-03-02T10:34:40;100075.38;;;11.29;100.00
1736;BME280;865;53.672;10.250;2024-03-02T10:37:07;100075.81;;;11.42;100.00
1736;BME280;865;53.672;10.250;2024-03-02T10:39:35;100073.16;;;11.44;100.00
1736;BME280;865;53.672;10.250;2024-03-02T10:42:07;100074.88;;;11.45;100.00
1736;BME280;865;53.672;10.250;2024-03-02T10:44:34;100079.13;;;11.47;100.00
1736;BME280;865;53.672;10.250;2024-03-02T10:47:04;100081.00;;;11.44;100.00
1736;BME280;865;53.672;10.250;2024-03-02T10:49:31;100077.25;;;11.51;100.00
1736;BME280;865;53.672;10.250;2024-03-02T10:51:58;100079.28;;;11.69;100.00
1736;BME280;865;53.672;10.250;2024-03-02T10:54:26;100073.28;;;11.66;100.00
1736;BME280;865;53.672;10.250;2024-03-02T10:56:53;100084.94;;;11.80;100.00
1736;BME280;865;53.672;10.250;2024-03-02T10:59:36;100076.38;;;12.02;100.00
1736;BME280;865;53.672;10.250;2024-03-02T11:02:06;100080.34;;;12.12;100.00
1736;BME280;865;53.672;10.250;2024-03-02T11:04:34;100074.97;;;12.17;100.00
1736;BME280;865;53.672;10.250;2024-03-02T11:07:04;100077.63;;;12.15;100.00
1736;BME280;865;53.672;10.250;2024-03-02T11:09:34;100083.31;;;12.03;100.00
1736;BME280;865;53.672;10.250;2024-03-02T11:14:31;100089.00;;;11.91;100.00
1736;BME280;865;53.672;10.250;2024-03-02T11:17:01;100090.47;;;11.73;100.00
1736;BME280;865;53.672;10.250;2024-03-02T11:19:30;100094.06;;;11.69;100.00
1736;BME280;865;53.672;10.250;2024-03-02T11:21:58;100087.50;;;11.57;100.00
1736;BME280;865;53.672;10.250;2024-03-02T11:26:53;100098.28;;;11.73;100.00
1736;BME280;865;53.672;10.250;2024-03-02T11:32:03;100094.50;;;11.81;100.00
1736;BME280;865;53.672;10.250;2024-03-02T11:34:32;100095.28;;;11.83;100.00
1736;BME280;865;53.672;10.250;2024-03-02T11:36:59;100094.22;;;11.91;100.00
1736;BME280;865;53.672;10.250;2024-03-02T11:39:28;100089.88;;;11.90;100.00
1736;BME280;865;53.672;10.250;2024-03-02T11:41:58;100097.84;;;11.60;100.00
1736;BME280;865;53.672;10.250;2024-03-02T11:44:26;100100.31;;;11.64;100.00
1736;BME280;865;53.672;10.250;2024-03-02T11:46:59;100096.56;;;11.72;100.00
1736;BME280;865;53.672;10.250;2024-03-02T11:49:45;100094.38;;;11.86;100.00
1736;BME280;865;53.672;10.250;2024-03-02T11:52:13;100095.47;;;11.79;100.00
1736;BME280;865;53.672;10.250;2024-03-02T11:54:42;100094.03;;;11.70;100.00
1736;BME280;865;53.672;10.250;2024-03-02T11:57:17;100093.44;;;11.62;100.00
1736;BME280;865;53.672;10.250;2024-03-02T11:59:45;100088.28;;;11.60;100.00
1736;BME280;865;53.672;10.250;2024-03-02T12:02:16;100094.06;;;11.69;100.00
1736;BME280;865;53.672;10.250;2024-03-02T12:04:46;100103.22;;;11.80;100.00
1736;BME280;865;53.672;10.250;2024-03-02T12:07:21;100092.56;;;11.88;100.00
1736;BME280;865;53.672;10.250;2024-03-02T12:09:58;100097.72;;;11.90;100.00
1736;BME280;865;53.672;10.250;2024-03-02T12:12:25;100091.31;;;11.98;100.00
1736;BME280;865;53.672;10.250;2024-03-02T12:14:53;100093.53;;;12.09;100.00
1736;BME280;865;53.672;10.250;2024-03-02T12:17:22;100092.91;;;12.02;100.00
1736;BME280;865;53.672;10.250;2024-03-02T12:19:49;100098.06;;;12.04;100.00
1736;BME280;865;53.672;10.250;2024-03-02T12:22:15;100090.34;;;12.01;100.00
1736;BME280;865;53.672;10.250;2024-03-02T12:24:43;100090.88;;;12.11;100.00
1736;BME280;865;53.672;10.250;2024-03-02T12:27:12;100095.31;;;12.08;100.00
1736;BME280;865;53.672;10.250;2024-03-02T12:29:39;100091.09;;;12.04;100.00
1736;BME280;865;53.672;10.250;2024-03-02T12:32:06;100092.75;;;12.07;100.00
1736;BME280;865;53.672;10.250;2024-03-02T12:34:33;100088.03;;;11.93;100.00
1736;BME280;865;53.672;10.250;2024-03-02T12:36:59;100083.53;;;11.97;100.00
1736;BME280;865;53.672;10.250;2024-03-02T12:39:26;100087.84;;;11.98;100.00
1736;BME280;865;53.672;10.250;2024-03-02T12:41:53;100082.94;;;11.89;100.00
1736;BME280;865;53.672;10.250;2024-03-02T12:44:21;100088.28;;;11.85;100.00
1736;BME280;865;53.672;10.250;2024-03-02T12:46:47;100078.75;;;11.83;100.00
1736;BME280;865;53.672;10.250;2024-03-02T12:49:15;100086.78;;;11.78;100.00
1736;BME280;865;53.672;10.250;2024-03-02T12:51:43;100084.50;;;11.94;100.00
1736;BME280;865;53.672;10.250;2024-03-02T12:54:10;100084.06;;;12.06;100.00
1736;BME280;865;53.672;10.250;2024-03-02T12:56:37;100079.09;;;12.22;100.00
1736;BME280;865;53.672;10.250;2024-03-02T12:59:04;100084.75;;;12.35;100.00
1736;BME280;865;53.672;10.250;2024-03-02T13:01:31;100081.28;;;12.35;100.00
1736;BME280;865;53.672;10.250;2024-03-02T13:03:58;100080.03;;;12.21;100.00
1736;BME280;865;53.672;10.250;2024-03-02T13:06:26;100067.31;;;12.34;100.00
1736;BME280;865;53.672;10.250;2024-03-02T13:08:55;100073.84;;;12.46;100.00
1736;BME280;865;53.672;10.250;2024-03-02T13:11:22;100071.47;;;12.40;100.00
1736;BME280;865;53.672;10.250;2024-03-02T13:13:52;100071.25;;;12.46;100.00
1736;BME280;865;53.672;10.250;2024-03-02T13:16:19;100070.38;;;12.45;100.00
1736;BME280;865;53.672;10.250;2024-03-02T13:18:55;100074.63;;;12.26;100.00
1736;BME280;865;53.672;10.250;2024-03-02T13:21:22;100066.38;;;12.13;100.00
1736;BME280;865;53.672;10.250;2024-03-02T13:23:49;100067.06;;;12.18;100.00